createdAt,value
2019-05-28T00:02:14.324Z,20.97
2019-05-28T00:04:47.033Z,21.27
2019-05-28T00:07:19.263Z,18.73
2019-05-28T00:09:51.726Z,17.10
2019-05-28T00:12:23.846Z,26.37
2019-05-28T00:14:56.145Z,55.37
2019-05-28T00:17:28.727Z,87.93
2019-05-28T00:20:00.882Z,76.40
2019-05-28T00:22:32.964Z,71.20
2019-05-28T00:25:05.355Z,46.73
2019-05-28T00:27:37.454Z,29.57
2019-05-28T00:30:19.766Z,22.93
2019-05-28T00:32:44.075Z,20.63
2019-05-28T00:35:17.042Z,20.43
2019-05-28T00:37:49.099Z,16.60
2019-05-28T00:40:21.431Z,18.33
2019-05-28T00:42:53.852Z,15.93
2019-05-28T00:45:27.023Z,16.87
2019-05-28T00:47:59.555Z,16.50
2019-05-28T00:50:31.929Z,17.10
2019-05-28T00:53:04.145Z,16.03
2019-05-28T00:55:38.784Z,15.40
2019-05-28T00:58:12.362Z,18.40
2019-05-28T01:00:50.336Z,16.60
2019-05-28T01:03:22.426Z,20.10
2019-05-28T01:05:54.533Z,23.37
2019-05-28T01:08:26.574Z,22.80
2019-05-28T01:10:58.628Z,25.53
2019-05-28T01:13:30.671Z,24.10
2019-05-28T01:16:02.817Z,21.90
2019-05-28T01:18:34.869Z,19.20
2019-05-28T01:21:07.059Z,21.70
2019-05-28T01:23:39.150Z,18.57
2019-05-28T01:26:11.799Z,18.20
2019-05-28T01:28:43.876Z,20.63
2019-05-28T01:31:16.025Z,20.80
2019-05-28T01:33:48.109Z,22.93
2019-05-28T01:36:20.212Z,26.63
2019-05-28T01:38:52.335Z,31.57
2019-05-28T01:41:24.450Z,28.77
2019-05-28T01:43:56.524Z,29.00
2019-05-28T01:46:41.213Z,25.33
2019-05-28T01:49:13.256Z,25.47
2019-05-28T01:51:45.369Z,30.30
2019-05-28T01:54:17.500Z,29.87
2019-05-28T01:56:49.657Z,32.50
2019-05-28T01:59:21.732Z,39.50
2019-05-28T02:01:53.819Z,39.20
2019-05-28T02:04:26.264Z,37.87
2019-05-28T02:06:58.357Z,35.60
2019-05-28T02:09:30.422Z,31.60
2019-05-28T02:12:02.768Z,34.37
2019-05-28T02:14:34.767Z,33.27
2019-05-28T02:17:06.930Z,30.73
2019-05-28T02:19:39.267Z,27.07
2019-05-28T02:22:11.297Z,25.83
2019-05-28T02:24:43.339Z,28.77
2019-05-28T02:27:15.418Z,28.50
2019-05-28T02:29:49.937Z,29.13
2019-05-28T02:32:22.248Z,24.67
2019-05-28T02:34:54.321Z,23.07
2019-05-28T02:37:26.474Z,21.87
2019-05-28T02:39:58.553Z,23.47
2019-05-28T02:42:30.554Z,22.87
2019-05-28T02:45:02.558Z,23.13
2019-05-28T02:47:34.618Z,25.13
2019-05-28T02:50:07.637Z,25.37
2019-05-28T02:52:41.860Z,23.77
2019-05-28T02:55:14.696Z,22.70
2019-05-28T02:57:48.784Z,22.17
2019-05-28T03:00:21.680Z,23.63
2019-05-28T03:02:56.270Z,26.10
2019-05-28T03:05:30.535Z,26.20
2019-05-28T03:08:04.579Z,27.03
2019-05-28T03:11:01.430Z,26.77
2019-05-28T03:13:12.774Z,25.83
2019-05-28T03:15:49.148Z,27.90
2019-05-28T03:18:23.694Z,27.47
2019-05-28T03:20:59.075Z,27.17
2019-05-28T03:23:35.285Z,35.50
2019-05-28T03:26:07.711Z,30.87
2019-05-28T03:28:40.042Z,28.80
2019-05-28T03:31:12.545Z,28.77
2019-05-28T03:33:44.646Z,24.80
2019-05-28T03:36:19.313Z,22.87
2019-05-28T03:38:53.365Z,23.83
2019-05-28T03:41:25.457Z,24.10
2019-05-28T03:43:57.536Z,21.53
2019-05-28T03:46:29.620Z,21.93
2019-05-28T03:49:01.704Z,20.97
2019-05-28T03:51:33.859Z,20.43
2019-05-28T03:54:06.127Z,19.03
2019-05-28T03:56:38.677Z,19.23
2019-05-28T03:59:12.307Z,18.77
2019-05-28T04:01:44.525Z,18.23
2019-05-28T04:04:16.914Z,17.67
2019-05-28T04:06:50.681Z,17.50
2019-05-28T04:09:22.749Z,18.73
2019-05-28T04:11:54.822Z,19.03
2019-05-28T04:14:26.877Z,20.57
2019-05-28T04:16:58.907Z,20.67
2019-05-28T04:19:30.932Z,20.77
2019-05-28T04:22:03.039Z,25.57
2019-05-28T04:24:35.709Z,31.90
2019-05-28T04:27:07.794Z,25.23
2019-05-28T04:29:39.821Z,25.47
2019-05-28T04:32:12.048Z,26.70
2019-05-28T04:34:44.151Z,24.40
2019-05-28T04:37:16.237Z,29.57
2019-05-28T04:39:48.221Z,26.47
2019-05-28T04:42:20.290Z,25.53
2019-05-28T04:44:52.326Z,29.77
2019-05-28T04:47:24.716Z,29.43
2019-05-28T04:49:56.756Z,30.03
2019-05-28T04:52:30.843Z,31.07
2019-05-28T04:55:02.648Z,31.77
2019-05-28T04:57:34.785Z,31.43
2019-05-28T05:00:08.917Z,28.20
2019-05-28T05:02:58.121Z,26.83
2019-05-28T05:05:15.194Z,29.93
2019-05-28T05:07:47.438Z,30.20
2019-05-28T05:10:19.702Z,31.00
2019-05-28T05:12:51.788Z,32.90
2019-05-28T05:15:23.832Z,32.17
2019-05-28T05:17:56.049Z,32.63
2019-05-28T05:20:28.426Z,32.13
2019-05-28T05:23:00.442Z,30.00
2019-05-28T05:25:32.818Z,30.27
2019-05-28T05:28:04.942Z,31.37
2019-05-28T05:30:36.995Z,32.57
2019-05-28T05:33:19.692Z,32.20
2019-05-28T05:35:42.852Z,32.77
2019-05-28T05:38:15.204Z,32.70
2019-05-28T05:40:47.403Z,32.70
2019-05-28T05:43:19.523Z,33.93
2019-05-28T05:45:51.639Z,36.23
2019-05-28T05:48:24.907Z,44.97
2019-05-28T05:50:56.899Z,39.37
2019-05-28T05:53:29.125Z,41.07
2019-05-28T05:56:01.350Z,40.57
2019-05-28T05:58:33.430Z,39.77
2019-05-28T06:01:05.519Z,40.03
2019-05-28T06:03:40.881Z,38.87
2019-05-28T06:06:11.667Z,39.67
2019-05-28T06:08:43.756Z,40.53
2019-05-28T06:11:16.236Z,38.97
2019-05-28T06:13:48.535Z,43.00
2019-05-28T06:16:20.566Z,50.20
2019-05-28T06:18:52.830Z,53.03
2019-05-28T06:21:24.838Z,49.77
2019-05-28T06:23:56.989Z,49.30
2019-05-28T06:26:29.016Z,47.10
2019-05-28T06:29:01.397Z,47.93
2019-05-28T06:31:33.833Z,45.17
2019-05-28T06:34:06.077Z,43.65
2019-05-28T06:36:38.111Z,43.70
2019-05-28T06:39:10.593Z,46.70
2019-05-28T06:41:42.655Z,44.77
2019-05-28T06:44:14.754Z,43.27
2019-05-28T06:46:46.822Z,40.93
2019-05-28T06:49:18.858Z,41.70
2019-05-28T06:51:50.871Z,40.60
2019-05-28T06:54:22.912Z,42.10
2019-05-28T06:56:54.982Z,43.07
2019-05-28T06:59:26.996Z,43.70
2019-05-28T07:01:59.062Z,46.43
2019-05-28T07:04:33.009Z,43.93
2019-05-28T07:07:06.100Z,43.20
2019-05-28T07:09:38.360Z,51.07
2019-05-28T07:12:10.769Z,48.77
2019-05-28T07:14:42.838Z,51.27
2019-05-28T07:17:15.450Z,46.10
2019-05-28T07:19:48.451Z,41.70
2019-05-28T07:22:21.001Z,42.30
2019-05-28T07:24:53.822Z,37.20
2019-05-28T07:27:26.285Z,34.70
2019-05-28T07:29:58.964Z,36.73
2019-05-28T07:32:31.580Z,36.10
2019-05-28T07:35:04.501Z,36.20
2019-05-28T07:37:36.630Z,37.97
2019-05-28T07:40:09.067Z,36.13
2019-05-28T07:42:41.218Z,118.50
2019-05-28T07:45:14.136Z,93.43
2019-05-28T07:47:46.241Z,102.33
2019-05-28T07:50:18.781Z,40.63
2019-05-28T07:53:02.456Z,37.30
2019-05-28T07:55:34.695Z,38.90
2019-05-28T07:58:06.803Z,37.80
2019-05-28T08:00:41.223Z,38.13
2019-05-28T08:03:13.577Z,39.90
2019-05-28T08:05:45.616Z,38.13
2019-05-28T08:08:21.284Z,38.97
2019-05-28T08:10:53.978Z,38.53
2019-05-28T08:13:39.419Z,37.80
2019-05-28T08:16:17.533Z,38.10
2019-05-28T08:18:33.807Z,38.13
2019-05-28T08:21:06.324Z,37.10
2019-05-28T08:23:38.318Z,36.53
2019-05-28T08:26:10.448Z,34.50
2019-05-28T08:28:42.483Z,33.73
2019-05-28T08:31:20.742Z,33.87
2019-05-28T08:33:49.113Z,33.87
2019-05-28T08:36:21.591Z,33.97
2019-05-28T08:38:53.928Z,33.07
2019-05-28T08:41:25.981Z,33.80
2019-05-28T08:43:58.428Z,35.92
2019-05-28T08:46:30.480Z,46.47
2019-05-28T08:49:02.541Z,44.77
2019-05-28T08:51:34.575Z,38.40
2019-05-28T08:54:06.801Z,44.57
2019-05-28T08:56:38.932Z,38.80
2019-05-28T08:59:10.998Z,34.40
2019-05-28T09:01:43.661Z,35.87
2019-05-28T09:04:15.852Z,33.57
2019-05-28T09:06:48.017Z,32.93
2019-05-28T09:09:20.175Z,29.60
2019-05-28T09:11:52.167Z,29.93
2019-05-28T09:14:24.369Z,28.70
2019-05-28T09:16:56.410Z,30.13
2019-05-28T09:19:28.583Z,30.80
2019-05-28T09:22:00.727Z,29.30
2019-05-28T09:24:32.848Z,29.23
2019-05-28T09:27:04.968Z,30.13
2019-05-28T09:29:36.968Z,31.03
2019-05-28T09:32:08.999Z,31.17
2019-05-28T09:34:41.076Z,31.83
2019-05-28T09:37:13.379Z,31.53
2019-05-28T09:39:45.389Z,30.97
2019-05-28T09:42:17.423Z,34.07
2019-05-28T09:44:49.539Z,31.63
2019-05-28T09:47:21.636Z,32.07
2019-05-28T09:49:56.263Z,33.33
2019-05-28T09:52:27.486Z,32.17
2019-05-28T09:54:59.674Z,32.90
2019-05-28T09:57:44.447Z,31.30
2019-05-28T10:00:06.592Z,28.75
2019-05-28T10:02:38.791Z,27.70
2019-05-28T10:05:12.233Z,24.67
2019-05-28T10:07:44.259Z,25.57
2019-05-28T10:10:16.674Z,25.37
2019-05-28T10:12:49.126Z,25.02
2019-05-28T10:15:21.797Z,26.30
2019-05-28T10:17:53.874Z,23.70
2019-05-28T10:20:28.261Z,25.43
2019-05-28T10:23:00.477Z,24.72
2019-05-28T10:25:32.609Z,23.05
2019-05-28T10:28:04.681Z,24.65
2019-05-28T10:30:36.911Z,24.27
2019-05-28T10:33:08.959Z,24.07
2019-05-28T10:35:41.594Z,27.17
2019-05-28T10:38:16.543Z,28.33
2019-05-28T10:40:47.648Z,28.63
2019-05-28T10:43:20.152Z,39.13
2019-05-28T10:45:52.775Z,27.70
2019-05-28T10:48:25.145Z,29.03
2019-05-28T10:50:57.224Z,59.70
2019-05-28T10:53:29.332Z,64.13
2019-05-28T10:56:01.489Z,55.27
2019-05-28T10:58:33.616Z,35.97
2019-05-28T11:01:07.238Z,23.43
2019-05-28T11:03:39.256Z,25.00
2019-05-28T11:06:12.185Z,25.23
2019-05-28T11:08:44.340Z,12.57
2019-05-28T11:11:17.662Z,12.20
2019-05-28T11:13:53.431Z,11.40
2019-05-28T11:16:23.959Z,10.27
2019-05-28T11:18:56.122Z,10.33
2019-05-28T11:21:28.256Z,10.77
2019-05-28T11:24:00.289Z,10.57
2019-05-28T11:26:32.345Z,11.27
2019-05-28T11:29:04.674Z,12.43
2019-05-28T11:31:36.747Z,11.57
2019-05-28T11:34:08.958Z,11.03
2019-05-28T11:36:41.448Z,11.23
2019-05-28T11:39:13.973Z,13.30
2019-05-28T11:41:46.068Z,15.53
2019-05-28T11:44:18.343Z,14.13
2019-05-28T11:46:51.041Z,14.83
2019-05-28T11:49:23.496Z,13.60
2019-05-28T11:51:56.023Z,13.07
2019-05-28T11:54:28.149Z,15.50
2019-05-28T11:57:00.542Z,17.77
2019-05-28T11:59:32.622Z,17.33
2019-05-28T12:02:05.896Z,19.47
2019-05-28T12:04:38.513Z,16.63
2019-05-28T12:07:24.967Z,18.93
2019-05-28T12:09:44.666Z,18.13
2019-05-28T12:12:16.839Z,19.87
2019-05-28T12:14:48.920Z,15.50
2019-05-28T12:17:40.126Z,16.30
2019-05-28T12:19:54.734Z,18.00
2019-05-28T12:22:26.890Z,18.23
2019-05-28T12:24:58.971Z,17.80
2019-05-28T12:27:31.326Z,17.07
2019-05-28T12:30:03.422Z,16.27
2019-05-28T12:32:36.745Z,18.50
2019-05-28T12:35:26.221Z,19.17
2019-05-28T12:37:48.936Z,15.97
2019-05-28T12:40:18.377Z,9.60
2019-05-28T12:42:50.522Z,11.10
2019-05-28T12:45:34.897Z,11.90
2019-05-28T12:48:09.107Z,11.77
2019-05-28T12:50:30.867Z,11.93
2019-05-28T12:53:02.925Z,14.60
2019-05-28T12:55:35.073Z,10.17
2019-05-28T12:58:07.278Z,15.17
2019-05-28T13:00:40.029Z,10.50
2019-05-28T13:03:12.549Z,16.37
2019-05-28T13:05:44.668Z,9.97
2019-05-28T13:08:16.838Z,8.10
2019-05-28T13:10:48.890Z,7.53
2019-05-28T13:13:20.967Z,7.20
2019-05-28T13:15:53.059Z,7.00
2019-05-28T13:18:25.144Z,9.20
2019-05-28T13:20:57.297Z,6.90
2019-05-28T13:23:29.381Z,8.00
2019-05-28T13:26:01.564Z,6.40
2019-05-28T13:28:33.718Z,6.63
2019-05-28T13:31:06.187Z,8.27
2019-05-28T13:33:38.181Z,6.63
2019-05-28T13:36:10.337Z,7.20
2019-05-28T13:38:43.020Z,6.33
2019-05-28T13:41:15.447Z,10.00
2019-05-28T13:43:47.712Z,9.40
2019-05-28T13:46:19.796Z,7.08
2019-05-28T13:48:52.045Z,6.20
2019-05-28T13:51:24.164Z,4.83
2019-05-28T13:53:56.363Z,6.27
2019-05-28T13:56:28.424Z,8.08
2019-05-28T13:59:01.690Z,7.40
2019-05-28T14:01:33.923Z,4.87
2019-05-28T14:04:06.771Z,6.70
2019-05-28T14:06:44.077Z,7.83
2019-05-28T14:09:12.627Z,11.30
2019-05-28T14:11:45.112Z,43.83
2019-05-28T14:14:17.237Z,11.63
2019-05-28T14:16:49.450Z,12.90
2019-05-28T14:19:21.578Z,17.80
2019-05-28T14:21:53.774Z,13.70
2019-05-28T14:24:25.867Z,18.47
2019-05-28T14:26:58.279Z,28.65
2019-05-28T14:29:30.349Z,8.43
2019-05-28T14:32:02.480Z,14.03
2019-05-28T14:34:36.337Z,19.05
2019-05-28T14:37:08.513Z,14.45
2019-05-28T14:39:41.703Z,15.80
2019-05-28T14:42:17.279Z,7.67
2019-05-28T14:44:47.731Z,13.53
2019-05-28T14:47:20.056Z,14.90
2019-05-28T14:49:52.167Z,15.93
2019-05-28T14:52:24.634Z,17.00
2019-05-28T14:54:57.322Z,16.75
2019-05-28T14:57:29.482Z,23.05
2019-05-28T15:00:01.922Z,27.93
2019-05-28T15:02:34.943Z,22.25
2019-05-28T15:05:07.892Z,13.70
2019-05-28T15:07:40.238Z,19.43
2019-05-28T15:10:15.255Z,8.20
2019-05-28T15:12:47.392Z,10.60
2019-05-28T15:15:34.520Z,12.28
2019-05-28T15:17:53.758Z,10.08
2019-05-28T15:20:25.800Z,15.83
2019-05-28T15:22:58.268Z,8.17
2019-05-28T15:25:30.374Z,22.60
2019-05-28T15:28:03.706Z,12.30
2019-05-28T15:30:35.822Z,13.53
2019-05-28T15:33:08.054Z,14.28
2019-05-28T15:35:40.205Z,20.10
2019-05-28T15:38:12.306Z,20.47
2019-05-28T15:40:44.434Z,13.48
2019-05-28T15:43:16.675Z,17.57
2019-05-28T15:45:49.092Z,18.10
2019-05-28T15:48:21.259Z,13.33
2019-05-28T15:50:53.455Z,10.35
2019-05-28T15:53:25.545Z,22.43
2019-05-28T15:55:57.630Z,22.85
2019-05-28T15:58:29.845Z,31.05
2019-05-28T16:01:02.272Z,10.83
2019-05-28T16:03:34.545Z,18.65
2019-05-28T16:06:06.709Z,14.38
2019-05-28T16:08:38.805Z,10.03
2019-05-28T16:11:11.461Z,16.80
2019-05-28T16:13:43.598Z,13.22
2019-05-28T16:16:16.351Z,23.15
2019-05-28T16:18:48.405Z,17.50
2019-05-28T16:21:21.038Z,18.82
2019-05-28T16:23:53.190Z,8.55
2019-05-28T16:26:25.560Z,12.78
2019-05-28T16:28:58.127Z,20.87
2019-05-28T16:31:30.708Z,11.63
2019-05-28T16:34:03.096Z,14.43
2019-05-28T16:36:35.596Z,13.50
2019-05-28T16:39:10.392Z,10.33
2019-05-28T16:41:42.620Z,13.45
2019-05-28T16:44:14.764Z,10.13
2019-05-28T16:46:46.886Z,8.33
2019-05-28T16:49:19.035Z,15.20
2019-05-28T16:51:51.411Z,11.67
2019-05-28T16:54:23.527Z,9.70
2019-05-28T16:56:56.306Z,19.67
2019-05-28T16:59:28.770Z,7.80
2019-05-28T17:02:01.783Z,10.65
2019-05-28T17:04:33.985Z,12.47
2019-05-28T17:07:06.887Z,11.05
2019-05-28T17:09:39.019Z,13.80
2019-05-28T17:12:11.172Z,12.03
2019-05-28T17:14:43.575Z,23.83
2019-05-28T17:17:15.821Z,11.63
2019-05-28T17:19:47.964Z,8.03
2019-05-28T17:22:20.093Z,8.50
2019-05-28T17:24:52.315Z,13.75
2019-05-28T17:27:25.031Z,12.63
2019-05-28T17:30:16.060Z,11.33
2019-05-28T17:32:31.169Z,15.80
2019-05-28T17:35:03.432Z,13.07
2019-05-28T17:37:35.595Z,9.53
2019-05-28T17:40:08.733Z,8.63
2019-05-28T17:42:40.974Z,13.68
2019-05-28T17:45:14.877Z,8.43
2019-05-28T17:47:47.092Z,17.17
2019-05-28T17:50:19.838Z,6.33
2019-05-28T17:52:52.388Z,6.83
2019-05-28T17:55:24.624Z,8.80
2019-05-28T17:57:56.773Z,7.45
2019-05-28T18:00:29.362Z,6.23
2019-05-28T18:03:01.924Z,16.37
2019-05-28T18:05:34.970Z,10.77
2019-05-28T18:08:07.508Z,14.07
2019-05-28T18:10:41.365Z,17.87
2019-05-28T18:13:13.552Z,16.40
2019-05-28T18:15:45.620Z,23.13
2019-05-28T18:18:17.742Z,9.13
2019-05-28T18:20:49.884Z,14.37
2019-05-28T18:23:22.096Z,13.23
2019-05-28T18:25:54.862Z,30.57
2019-05-28T18:28:27.964Z,11.65
2019-05-28T18:31:00.352Z,19.13
2019-05-28T18:33:32.516Z,19.80
2019-05-28T18:36:04.725Z,22.10
2019-05-28T18:38:43.238Z,25.90
2019-05-28T18:41:21.183Z,15.70
2019-05-28T18:43:44.742Z,24.90
2019-05-28T18:46:16.951Z,16.40
2019-05-28T18:48:49.081Z,13.63
2019-05-28T18:51:21.245Z,31.93
2019-05-28T18:53:53.706Z,15.68
2019-05-28T18:56:26.149Z,33.03
2019-05-28T18:58:58.303Z,5.45
2019-05-28T19:01:30.428Z,3.97
2019-05-28T19:04:02.710Z,4.50
2019-05-28T19:06:34.880Z,4.17
2019-05-28T19:09:11.530Z,3.50
2019-05-28T19:11:43.899Z,3.20
2019-05-28T19:14:15.986Z,2.92
2019-05-28T19:16:48.162Z,2.98
2019-05-28T19:19:20.255Z,2.90
2019-05-28T19:21:52.469Z,2.60
2019-05-28T19:24:24.563Z,2.90
2019-05-28T19:26:56.766Z,3.15
2019-05-28T19:29:28.930Z,3.02
2019-05-28T19:32:02.122Z,3.58
2019-05-28T19:34:36.662Z,3.33
2019-05-28T19:37:09.695Z,2.70
2019-05-28T19:39:43.650Z,2.40
2019-05-28T19:42:15.765Z,2.90
2019-05-28T19:44:48.174Z,2.75
2019-05-28T19:47:20.700Z,2.70
2019-05-28T19:49:52.808Z,3.13
2019-05-28T19:52:25.059Z,6.40
2019-05-28T19:54:57.725Z,4.80
2019-05-28T19:57:29.907Z,7.50
2019-05-28T20:00:02.306Z,3.45
2019-05-28T20:02:34.565Z,2.93
2019-05-28T20:05:09.324Z,2.50
2019-05-28T20:07:41.754Z,2.70
2019-05-28T20:10:17.355Z,60.20
2019-05-28T20:12:50.063Z,140.10
2019-05-28T20:15:24.069Z,30.33
2019-05-28T20:17:56.862Z,3.00
2019-05-28T20:20:31.737Z,11.07
2019-05-28T20:23:04.894Z,13.35
2019-05-28T20:25:39.121Z,17.37
2019-05-28T20:28:15.732Z,18.98
2019-05-28T20:30:51.088Z,32.10
2019-05-28T20:33:25.147Z,21.42
2019-05-28T20:35:59.729Z,12.87
2019-05-28T20:38:32.800Z,9.85
2019-05-28T20:41:06.052Z,4.30
2019-05-28T20:43:38.334Z,2.53
2019-05-28T20:46:10.703Z,3.10
2019-05-28T20:48:44.770Z,2.63
2019-05-28T20:51:21.843Z,3.20
2019-05-28T20:53:51.170Z,2.70
2019-05-28T20:56:24.033Z,2.70
2019-05-28T20:58:56.107Z,2.57
2019-05-28T21:01:28.289Z,2.75
2019-05-28T21:04:00.289Z,2.93
2019-05-28T21:06:32.445Z,3.90
2019-05-28T21:09:05.061Z,3.00
2019-05-28T21:11:37.277Z,3.35
2019-05-28T21:14:09.556Z,8.07
2019-05-28T21:16:41.948Z,7.87
2019-05-28T21:19:14.175Z,4.37
2019-05-28T21:21:46.347Z,2.80
2019-05-28T21:24:18.406Z,3.07
2019-05-28T21:26:50.537Z,3.47
2019-05-28T21:29:22.574Z,4.30
2019-05-28T21:31:54.607Z,3.72
2019-05-28T21:34:26.752Z,3.30
2019-05-28T21:36:59.222Z,3.80
2019-05-28T21:39:31.315Z,3.63
2019-05-28T21:42:03.419Z,3.30
2019-05-28T21:44:35.563Z,3.80
2019-05-28T21:47:07.937Z,3.63
2019-05-28T21:49:40.436Z,22.10
2019-05-28T21:52:13.056Z,12.63
2019-05-28T21:54:45.529Z,23.43
2019-05-28T21:57:18.311Z,21.43
2019-05-28T21:59:51.208Z,6.80
2019-05-28T22:02:23.877Z,13.87
2019-05-28T22:05:16.828Z,13.67
2019-05-28T22:07:49.793Z,12.83
2019-05-28T22:10:22.417Z,9.83
2019-05-28T22:12:55.631Z,4.90
2019-05-28T22:15:28.205Z,13.20
2019-05-28T22:18:02.246Z,5.23
2019-05-28T22:20:34.899Z,3.67
2019-05-28T22:23:08.702Z,8.57
2019-05-28T22:25:41.376Z,8.13
2019-05-28T22:28:13.906Z,4.13
2019-05-28T22:30:46.628Z,3.20
2019-05-28T22:33:19.491Z,39.27
2019-05-28T22:35:52.049Z,61.00
2019-05-28T22:38:24.976Z,45.53
2019-05-28T22:40:58.297Z,4.73
2019-05-28T22:43:31.925Z,3.97
2019-05-28T22:46:05.200Z,3.13
2019-05-28T22:48:37.723Z,3.27
2019-05-28T22:51:10.000Z,2.70
2019-05-28T22:53:42.062Z,3.50
2019-05-28T22:56:14.035Z,3.57
2019-05-28T22:58:46.065Z,3.87
2019-05-28T23:01:18.085Z,7.67
2019-05-28T23:03:50.253Z,11.10
2019-05-28T23:06:22.276Z,4.73
2019-05-28T23:08:54.434Z,3.03
2019-05-28T23:11:26.467Z,2.93
2019-05-28T23:13:59.791Z,3.10
2019-05-28T23:16:31.866Z,3.57
2019-05-28T23:19:04.494Z,3.20
2019-05-28T23:21:37.658Z,3.80
2019-05-28T23:24:09.813Z,3.13
2019-05-28T23:26:41.909Z,3.43
2019-05-28T23:29:14.016Z,3.27
2019-05-28T23:31:46.222Z,3.60
2019-05-28T23:34:18.545Z,3.47
2019-05-28T23:36:50.561Z,4.00
2019-05-28T23:39:22.699Z,3.13
2019-05-28T23:41:54.793Z,3.70
2019-05-28T23:44:26.922Z,4.10
2019-05-28T23:46:59.386Z,3.73
2019-05-28T23:49:31.576Z,3.53
2019-05-28T23:52:04.935Z,3.60
2019-05-28T23:54:37.097Z,3.80
2019-05-28T23:57:09.836Z,3.13
2019-05-28T23:59:42.031Z,3.83
